Terminal Aerodrome Forecast
Issued by NWS

Home | Current Version | Previous Version | Text Only | Print | Product List | Glossary On
Versions: 1 2 3 4 5 6 7 8 9 10 11 12 13 14 15 16 17
000
FTUS45 KSLC 180905 AAA
TAFOGD
TAF AMD
KOGD 180905Z 1809/1906 17012G20KT P6SM BKN120
     FM181700 29011KT P6SM VCSH SCT070 BKN100
     FM190200 31007KT P6SM SCT070 BKN100=

USA.gov is the U.S. government's official web portal to all federal, state and local government web resources and services.